createdAt,value
2023-05-12T00:00:39.543Z,14.20
2023-05-12T00:03:25.206Z,14.20
2023-05-12T00:06:11.494Z,14.30
2023-05-12T00:08:57.184Z,14.20
2023-05-12T00:11:42.925Z,14.30
2023-05-12T00:14:28.475Z,14.20
2023-05-12T00:17:14.640Z,14.20
2023-05-12T00:19:59.986Z,14.20
2023-05-12T00:22:45.871Z,14.20
2023-05-12T00:25:31.346Z,14.20
2023-05-12T00:28:17.867Z,14.20
2023-05-12T00:31:04.060Z,14.20
2023-05-12T00:33:49.929Z,14.10
2023-05-12T00:36:35.392Z,14.10
2023-05-12T00:39:21.310Z,14.10
2023-05-12T00:42:07.412Z,14.10
2023-05-12T00:44:53.080Z,14.10
2023-05-12T00:47:38.745Z,14.10
2023-05-12T00:50:24.578Z,14.10
2023-05-12T00:53:10.040Z,14.10
2023-05-12T00:55:56.005Z,14.10
2023-05-12T00:58:42.044Z,14.10
2023-05-12T01:01:30.339Z,14.10
2023-05-12T01:04:16.161Z,14.20
2023-05-12T01:07:07.580Z,14.20
2023-05-12T01:09:54.660Z,14.10
2023-05-12T01:12:40.992Z,14.10
2023-05-12T01:15:26.701Z,14.10
2023-05-12T01:18:15.030Z,14.10
2023-05-12T01:21:01.926Z,14.10
2023-05-12T01:23:58.258Z,14.10
2023-05-12T01:26:46.448Z,14.10
2023-05-12T01:29:32.387Z,14.10
2023-05-12T01:32:18.835Z,14.10
2023-05-12T01:35:04.788Z,14.00
2023-05-12T01:37:52.051Z,14.00
2023-05-12T01:40:38.355Z,14.00
2023-05-12T01:43:24.191Z,14.00
2023-05-12T01:46:11.040Z,14.00
2023-05-12T01:48:58.579Z,14.00
2023-05-12T01:51:45.372Z,13.90
2023-05-12T01:54:31.322Z,13.90
2023-05-12T01:57:16.895Z,13.90
2023-05-12T02:00:02.460Z,13.90
2023-05-12T02:02:47.978Z,13.90
2023-05-12T02:05:33.724Z,13.80
2023-05-12T02:08:20.383Z,13.80
2023-05-12T02:11:09.218Z,13.80
2023-05-12T02:13:55.093Z,13.80
2023-05-12T02:16:41.958Z,13.80
2023-05-12T02:19:27.527Z,13.80
2023-05-12T02:22:15.429Z,13.80
2023-05-12T02:25:01.994Z,13.80
2023-05-12T02:27:47.762Z,13.80
2023-05-12T02:30:34.631Z,13.80
2023-05-12T02:33:20.909Z,13.70
2023-05-12T02:36:06.550Z,13.70
2023-05-12T02:38:52.227Z,13.70
2023-05-12T02:41:37.877Z,13.70
2023-05-12T02:44:23.777Z,13.60
2023-05-12T02:47:09.779Z,13.50
2023-05-12T02:49:56.978Z,13.50
2023-05-12T02:52:42.722Z,13.40
2023-05-12T02:55:30.270Z,13.40
2023-05-12T02:58:15.942Z,13.40
2023-05-12T03:01:09.912Z,13.30
2023-05-12T03:03:57.374Z,13.20
2023-05-12T03:06:43.016Z,13.10
2023-05-12T03:09:28.647Z,13.10
2023-05-12T03:12:14.317Z,13.00
2023-05-12T03:14:59.951Z,13.00
2023-05-12T03:17:45.719Z,13.10
2023-05-12T03:20:31.663Z,13.10
2023-05-12T03:23:18.387Z,13.10
2023-05-12T03:26:03.949Z,13.10
2023-05-12T03:28:49.666Z,13.10
2023-05-12T03:31:35.745Z,13.10
2023-05-12T03:34:22.016Z,13.10
2023-05-12T03:37:07.939Z,13.20
2023-05-12T03:39:56.333Z,13.20
2023-05-12T03:42:42.138Z,13.20
2023-05-12T03:45:27.933Z,13.20
2023-05-12T03:48:13.538Z,13.20
2023-05-12T03:50:59.215Z,13.10
2023-05-12T03:53:47.903Z,13.00
2023-05-12T03:56:33.354Z,12.90
2023-05-12T03:59:18.935Z,12.90
2023-05-12T04:02:07.785Z,12.90
2023-05-12T04:04:53.697Z,13.00
2023-05-12T04:07:39.838Z,13.00
2023-05-12T04:10:25.739Z,13.00
2023-05-12T04:13:11.442Z,13.00
2023-05-12T04:16:00.422Z,13.10
2023-05-12T04:18:45.800Z,13.00
2023-05-12T04:21:33.117Z,13.00
2023-05-12T04:24:18.769Z,13.10
2023-05-12T04:27:05.612Z,13.10
2023-05-12T04:29:51.746Z,13.20
2023-05-12T04:32:37.336Z,13.20
2023-05-12T04:35:23.824Z,13.20
2023-05-12T04:38:10.015Z,13.30
2023-05-12T04:41:00.116Z,13.30
2023-05-12T04:46:34.733Z,13.30
2023-05-12T04:49:20.354Z,13.20
2023-05-12T04:52:07.310Z,13.10
2023-05-12T04:54:53.391Z,13.20
2023-05-12T04:57:41.380Z,13.30
2023-05-12T05:00:28.458Z,13.50
2023-05-12T05:03:14.442Z,13.70
2023-05-12T05:06:00.022Z,13.70
2023-05-12T05:08:46.599Z,13.70
2023-05-12T05:11:32.638Z,13.70
2023-05-12T05:14:18.211Z,13.60
2023-05-12T05:17:04.086Z,13.60
2023-05-12T05:19:57.260Z,13.50
2023-05-12T05:22:44.960Z,13.50
2023-05-12T05:25:31.043Z,13.50
2023-05-12T05:28:17.097Z,13.50
2023-05-12T05:31:03.324Z,13.50
2023-05-12T05:33:49.317Z,13.50
2023-05-12T05:36:36.099Z,13.60
2023-05-12T05:39:22.668Z,13.70
2023-05-12T05:42:08.325Z,13.70
2023-05-12T05:44:54.737Z,13.80
2023-05-12T05:47:40.656Z,13.80
2023-05-12T05:50:27.552Z,13.80
2023-05-12T05:53:13.215Z,13.90
2023-05-12T05:55:59.248Z,14.00
2023-05-12T05:58:44.933Z,14.00
2023-05-12T06:01:32.292Z,14.10
2023-05-12T06:04:18.918Z,14.10
2023-05-12T06:07:05.850Z,14.20
2023-05-12T06:09:53.166Z,14.40
2023-05-12T06:12:40.935Z,14.60
2023-05-12T06:15:26.703Z,14.70
2023-05-12T06:18:12.438Z,14.80
2023-05-12T06:20:58.188Z,14.90
2023-05-12T06:23:43.772Z,15.00
2023-05-12T06:26:31.607Z,15.10
2023-05-12T06:29:17.294Z,15.20
2023-05-12T06:32:03.208Z,15.40
2023-05-12T06:34:49.091Z,15.50
2023-05-12T06:37:34.590Z,15.70
2023-05-12T06:40:20.505Z,15.80
2023-05-12T06:43:06.187Z,15.90
2023-05-12T06:45:54.202Z,16.00
2023-05-12T06:48:39.854Z,16.00
2023-05-12T06:51:25.509Z,16.30
2023-05-12T06:54:11.251Z,16.40
2023-05-12T06:56:56.919Z,16.40
2023-05-12T06:59:42.139Z,16.50
2023-05-12T07:02:28.012Z,16.40
2023-05-12T07:05:13.495Z,16.20
2023-05-12T07:07:59.264Z,16.40
2023-05-12T07:10:44.722Z,16.50
2023-05-12T07:13:30.474Z,16.50
2023-05-12T07:16:16.899Z,16.90
2023-05-12T07:19:02.234Z,17.10
2023-05-12T07:21:47.879Z,17.40
2023-05-12T07:24:33.518Z,17.70
2023-05-12T07:27:19.791Z,18.40
2023-05-12T07:30:07.032Z,19.00
2023-05-12T07:32:52.984Z,19.60
2023-05-12T07:35:38.736Z,20.00
2023-05-12T07:38:24.204Z,20.10
2023-05-12T07:41:09.744Z,19.90
2023-05-12T07:43:55.443Z,20.10
2023-05-12T07:46:41.289Z,19.80
2023-05-12T07:49:26.678Z,20.00
2023-05-12T07:52:12.707Z,19.80
2023-05-12T07:55:03.011Z,20.00
2023-05-12T07:57:50.024Z,19.80
2023-05-12T08:00:35.827Z,19.90
2023-05-12T08:03:21.537Z,20.20
2023-05-12T08:06:07.503Z,19.90
2023-05-12T08:08:53.774Z,20.00
2023-05-12T08:11:39.788Z,20.30
2023-05-12T08:14:25.785Z,20.40
2023-05-12T08:17:11.500Z,20.30
2023-05-12T08:19:57.329Z,20.30
2023-05-12T08:22:44.135Z,20.00
2023-05-12T08:25:31.028Z,19.60
2023-05-12T08:28:16.481Z,19.20
2023-05-12T08:31:04.814Z,19.20
2023-05-12T08:34:02.785Z,19.10
2023-05-12T08:36:54.796Z,19.20
2023-05-12T08:39:40.482Z,19.60
2023-05-12T08:42:43.017Z,19.00
2023-05-12T08:45:29.441Z,18.00
2023-05-12T08:48:15.880Z,18.60
2023-05-12T08:51:03.080Z,19.20
2023-05-12T08:53:49.313Z,19.40
2023-05-12T08:59:24.468Z,19.20
2023-05-12T09:02:10.694Z,19.10
2023-05-12T09:04:56.271Z,19.40
2023-05-12T09:07:43.731Z,19.00
2023-05-12T09:13:23.524Z,18.60
2023-05-12T09:16:12.963Z,18.60
2023-05-12T09:18:59.568Z,18.70
2023-05-12T09:21:47.770Z,18.90
2023-05-12T09:29:07.051Z,18.60
2023-05-12T09:31:53.547Z,18.70
2023-05-12T09:34:41.563Z,18.70
2023-05-12T09:37:31.753Z,18.70
2023-05-12T09:40:20.125Z,18.10
2023-05-12T09:43:05.953Z,18.00
2023-05-12T09:45:51.666Z,18.00
2023-05-12T09:58:43.543Z,17.80
2023-05-12T10:01:29.271Z,17.60
2023-05-12T10:04:15.404Z,17.50
2023-05-12T10:07:01.391Z,17.40
2023-05-12T10:09:48.454Z,17.30
2023-05-12T10:12:36.098Z,17.20
2023-05-12T10:24:34.749Z,16.60
2023-05-12T10:27:20.963Z,16.40
2023-05-12T10:30:07.494Z,16.40
2023-05-12T10:32:53.749Z,16.40
2023-05-12T10:35:40.260Z,16.40
2023-05-12T10:38:26.060Z,16.50
2023-05-12T10:41:12.305Z,16.60
2023-05-12T10:43:57.852Z,16.60
2023-05-12T10:46:43.837Z,16.80
2023-05-12T10:49:34.752Z,17.00
2023-05-12T10:52:20.403Z,17.40
2023-05-12T10:55:11.091Z,17.70
2023-05-12T10:58:04.313Z,18.00
2023-05-12T11:00:51.821Z,18.30
2023-05-12T11:03:38.592Z,18.60
2023-05-12T11:06:30.400Z,19.00
2023-05-12T11:09:17.681Z,19.10
2023-05-12T11:12:04.798Z,19.20
2023-05-12T11:14:50.640Z,19.40
2023-05-12T11:17:40.651Z,19.60
2023-05-12T11:20:28.118Z,19.60
2023-05-12T11:23:29.140Z,19.80
2023-05-12T11:30:55.390Z,19.80
2023-05-12T11:43:53.918Z,20.20
2023-05-12T11:46:39.604Z,20.20
2023-05-12T11:49:26.123Z,20.20
2023-05-12T11:52:12.508Z,20.00
2023-05-12T11:55:01.075Z,19.80
2023-05-12T11:57:55.039Z,19.60
2023-05-12T12:05:16.141Z,18.90
2023-05-12T12:10:47.257Z,18.80
2023-05-12T12:27:22.768Z,19.40
2023-05-12T12:37:17.199Z,18.70
2023-05-12T12:40:08.250Z,18.60
2023-05-12T12:42:54.104Z,18.50
2023-05-12T12:45:40.076Z,18.40
2023-05-12T12:48:28.527Z,18.40
2023-05-12T12:51:14.461Z,18.30
2023-05-12T12:53:59.776Z,18.10
2023-05-12T12:56:45.669Z,18.00
2023-05-12T13:05:18.311Z,18.10
2023-05-12T13:08:04.142Z,18.30
2023-05-12T13:10:49.661Z,18.40
2023-05-12T13:13:35.576Z,18.50
2023-05-12T13:16:21.297Z,18.40
2023-05-12T13:19:08.266Z,18.60
2023-05-12T13:21:54.303Z,18.60
2023-05-12T13:24:40.126Z,18.60
2023-05-12T13:28:30.270Z,18.70
2023-05-12T13:31:18.387Z,18.60
2023-05-12T13:34:03.939Z,18.70
2023-05-12T13:36:49.718Z,18.90
2023-05-12T13:39:38.238Z,18.70
2023-05-12T13:42:24.152Z,18.90
2023-05-12T13:45:10.461Z,18.90
2023-05-12T13:47:56.138Z,18.90
2023-05-12T13:50:41.660Z,18.80
2023-05-12T13:53:27.474Z,18.70
2023-05-12T13:56:14.310Z,18.60
2023-05-12T13:58:59.681Z,18.80
2023-05-12T14:01:45.846Z,18.80
2023-05-12T14:04:31.719Z,19.00
2023-05-12T14:07:19.363Z,19.00
2023-05-12T14:10:05.132Z,19.00
2023-05-12T14:12:52.900Z,19.20
2023-05-12T14:15:48.500Z,19.20
2023-05-12T14:18:34.868Z,19.10
2023-05-12T14:21:21.007Z,19.00
2023-05-12T14:24:06.901Z,18.90
2023-05-12T14:26:54.842Z,18.90
2023-05-12T14:29:40.415Z,19.20
2023-05-12T14:32:26.092Z,19.30
2023-05-12T14:35:11.836Z,19.30
2023-05-12T14:37:57.931Z,19.30
2023-05-12T14:40:45.040Z,19.30
2023-05-12T14:43:31.407Z,19.40
2023-05-12T14:46:18.272Z,19.60
2023-05-12T14:49:10.594Z,19.80
2023-05-12T14:51:55.913Z,19.70
2023-05-12T14:54:41.739Z,19.60
2023-05-12T14:57:27.423Z,19.70
2023-05-12T15:00:14.173Z,19.80
2023-05-12T15:03:01.839Z,19.70
2023-05-12T15:06:04.698Z,19.30
2023-05-12T15:08:52.268Z,19.20
2023-05-12T15:11:37.899Z,19.10
2023-05-12T15:17:10.136Z,19.30
2023-05-12T15:19:55.982Z,19.20
2023-05-12T15:22:41.699Z,19.10
2023-05-12T15:25:27.123Z,18.90
2023-05-12T15:28:13.047Z,18.30
2023-05-12T15:30:58.690Z,18.30
2023-05-12T15:33:44.411Z,18.10
2023-05-12T15:36:30.987Z,18.30
2023-05-12T15:39:16.471Z,18.30
2023-05-12T15:42:02.161Z,18.10
2023-05-12T15:44:47.859Z,18.00
2023-05-12T15:47:34.168Z,18.00
2023-05-12T15:50:22.952Z,17.90
2023-05-12T15:53:08.996Z,17.90
2023-05-12T15:56:01.883Z,18.00
2023-05-12T15:58:47.753Z,17.80
2023-05-12T16:01:33.915Z,17.70
2023-05-12T16:04:19.799Z,17.70
2023-05-12T16:07:05.557Z,17.80
2023-05-12T16:09:51.004Z,17.80
2023-05-12T16:12:36.840Z,17.80
2023-05-12T16:15:22.764Z,17.70
2023-05-12T16:18:11.127Z,17.70
2023-05-12T16:20:57.900Z,17.60
2023-05-12T16:23:43.542Z,17.50
2023-05-12T16:26:29.561Z,17.50
2023-05-12T16:29:15.013Z,17.50
2023-05-12T16:32:00.707Z,17.40
2023-05-12T16:34:47.018Z,17.30
2023-05-12T16:37:32.813Z,17.30
2023-05-12T16:40:19.305Z,17.30
2023-05-12T16:43:04.779Z,17.30
2023-05-12T16:45:58.357Z,17.20
2023-05-12T16:48:43.908Z,17.30
2023-05-12T16:51:30.997Z,17.30
2023-05-12T16:54:18.033Z,19.70
2023-05-12T16:57:03.932Z,17.40
2023-05-12T16:59:49.732Z,17.30
2023-05-12T17:02:35.191Z,17.30
2023-05-12T17:05:21.402Z,17.30
2023-05-12T17:08:07.124Z,17.20
2023-05-12T17:10:52.753Z,17.20
2023-05-12T17:13:38.627Z,17.10
2023-05-12T17:16:24.184Z,17.00
2023-05-12T17:21:59.505Z,16.90
2023-05-12T17:24:45.201Z,16.70
2023-05-12T17:27:30.975Z,16.50
2023-05-12T17:30:17.168Z,16.50
2023-05-12T17:33:02.522Z,16.50
2023-05-12T17:36:07.794Z,16.40
2023-05-12T17:38:55.080Z,16.40
2023-05-12T17:41:40.604Z,16.40
2023-05-12T17:44:26.352Z,16.30
2023-05-12T17:47:14.069Z,16.30
2023-05-12T17:49:59.778Z,16.30
2023-05-12T17:52:45.630Z,16.30
2023-05-12T17:55:31.501Z,16.20
2023-05-12T17:58:17.426Z,16.20
2023-05-12T18:01:03.550Z,16.20
2023-05-12T18:03:49.203Z,16.20
2023-05-12T18:06:35.569Z,16.20
2023-05-12T18:09:23.328Z,16.20
2023-05-12T18:12:09.331Z,16.10
2023-05-12T18:14:55.138Z,16.10
2023-05-12T18:17:41.347Z,16.10
2023-05-12T18:20:27.255Z,16.00
2023-05-12T18:23:13.093Z,16.00
2023-05-12T18:25:58.996Z,15.80
2023-05-12T18:28:44.678Z,15.80
2023-05-12T18:31:30.406Z,15.70
2023-05-12T18:34:16.001Z,15.70
2023-05-12T18:37:02.121Z,15.70
2023-05-12T18:39:48.186Z,15.60
2023-05-12T18:42:34.428Z,15.70
2023-05-12T18:45:20.423Z,15.70
2023-05-12T18:48:06.322Z,15.70
2023-05-12T18:50:52.294Z,15.80
2023-05-12T18:53:37.915Z,15.80
2023-05-12T18:56:23.508Z,15.80
2023-05-12T18:59:09.692Z,15.80
2023-05-12T19:01:55.658Z,15.80
2023-05-12T19:04:41.553Z,15.80
2023-05-12T19:07:27.236Z,15.70
2023-05-12T19:10:12.980Z,15.70
2023-05-12T19:12:59.630Z,15.70
2023-05-12T19:15:46.657Z,15.70
2023-05-12T19:18:32.600Z,15.70
2023-05-12T19:21:18.224Z,15.60
2023-05-12T19:24:03.986Z,15.60
2023-05-12T19:26:49.464Z,15.60
2023-05-12T19:30:06.189Z,15.60
2023-05-12T19:32:51.680Z,15.50
2023-05-12T19:35:37.393Z,15.50
2023-05-12T19:38:23.781Z,15.40
2023-05-12T19:41:09.384Z,15.40
2023-05-12T19:43:55.622Z,15.30
2023-05-12T19:46:41.592Z,15.30
2023-05-12T19:49:27.226Z,15.30
2023-05-12T19:52:12.905Z,15.20
2023-05-12T19:54:58.740Z,15.20
2023-05-12T19:57:51.723Z,15.20
2023-05-12T20:00:39.323Z,15.10
2023-05-12T20:03:26.919Z,15.10
2023-05-12T20:06:12.737Z,15.00
2023-05-12T20:08:58.315Z,15.00
2023-05-12T20:11:44.056Z,15.00
2023-05-12T20:14:29.472Z,14.90
2023-05-12T20:17:15.374Z,14.90
2023-05-12T20:20:03.497Z,14.90
2023-05-12T20:22:49.018Z,14.80
2023-05-12T20:25:36.181Z,14.90
2023-05-12T20:28:24.023Z,14.80
2023-05-12T20:31:10.202Z,14.80
2023-05-12T20:33:56.292Z,14.80
2023-05-12T20:36:42.115Z,17.60
2023-05-12T20:39:28.406Z,14.70
2023-05-12T20:42:14.269Z,14.70
2023-05-12T20:44:59.810Z,14.70
2023-05-12T20:47:45.785Z,14.70
2023-05-12T20:50:31.721Z,14.70
2023-05-12T20:53:17.330Z,14.70
2023-05-12T20:56:03.156Z,14.70
2023-05-12T20:58:49.602Z,14.70
2023-05-12T21:01:35.539Z,14.70
2023-05-12T21:04:21.130Z,14.60
2023-05-12T21:07:06.886Z,14.60
2023-05-12T21:09:52.713Z,14.60
2023-05-12T21:12:38.618Z,14.60
2023-05-12T21:15:25.984Z,14.50
2023-05-12T21:18:13.386Z,14.40
2023-05-12T21:20:58.918Z,14.40
2023-05-12T21:23:44.649Z,14.40
2023-05-12T21:26:30.447Z,14.40
2023-05-12T21:29:16.374Z,14.40
2023-05-12T21:32:02.200Z,14.40
2023-05-12T21:34:47.994Z,14.50
2023-05-12T21:37:33.504Z,14.50
2023-05-12T21:40:19.228Z,14.50
2023-05-12T21:43:05.079Z,14.40
2023-05-12T21:45:50.834Z,14.40
2023-05-12T21:48:36.562Z,14.30
2023-05-12T21:51:22.225Z,14.20
2023-05-12T21:54:08.912Z,14.20
2023-05-12T21:56:54.728Z,14.30
2023-05-12T21:59:40.411Z,14.20
2023-05-12T22:02:26.363Z,14.10
2023-05-12T22:05:12.050Z,14.10
2023-05-12T22:07:58.306Z,14.10
2023-05-12T22:10:44.478Z,14.10
2023-05-12T22:13:29.955Z,14.10
2023-05-12T22:16:16.166Z,14.10
2023-05-12T22:19:02.033Z,14.10
2023-05-12T22:21:47.709Z,14.00
2023-05-12T22:24:33.728Z,14.00
2023-05-12T22:27:22.151Z,14.00
2023-05-12T22:30:10.059Z,14.00
2023-05-12T22:32:56.316Z,14.10
2023-05-12T22:35:41.780Z,14.00
2023-05-12T22:38:27.741Z,14.00
2023-05-12T22:41:13.262Z,14.00
2023-05-12T22:43:58.950Z,13.80
2023-05-12T22:46:44.510Z,13.80
2023-05-12T22:49:30.104Z,13.90
2023-05-12T22:52:16.725Z,14.00
2023-05-12T22:55:02.285Z,14.00
2023-05-12T22:57:48.653Z,14.00
2023-05-12T23:00:34.465Z,13.90
2023-05-12T23:03:20.178Z,13.90
2023-05-12T23:06:06.129Z,13.70
2023-05-12T23:08:52.063Z,13.60
2023-05-12T23:11:38.408Z,13.60
2023-05-12T23:14:23.883Z,13.50
2023-05-12T23:17:09.608Z,13.60
2023-05-12T23:19:56.192Z,13.70
2023-05-12T23:22:41.794Z,13.70
2023-05-12T23:25:27.489Z,13.70
2023-05-12T23:28:13.088Z,13.70
2023-05-12T23:30:58.750Z,13.70
2023-05-12T23:33:44.583Z,13.70
2023-05-12T23:36:31.372Z,13.50
2023-05-12T23:39:17.299Z,13.50
2023-05-12T23:42:02.617Z,13.60
2023-05-12T23:44:48.147Z,13.70
2023-05-12T23:47:34.104Z,13.80
2023-05-12T23:50:19.709Z,13.90
2023-05-12T23:53:05.800Z,13.90
2023-05-12T23:55:51.268Z,13.90
2023-05-12T23:58:37.164Z,13.80
